Time;durP1;ratioP1;P1;durP2;ratioP2;P2;SDS_P1;SDS_P2;PMS_P1;PMS_P2;Temp;Humidity;BMP_temperature;BMP_pressure;BME280_temperature;BME280_humidity;BME280_pressure;Samples;Min_cycle;Max_cycle;Signal;HPM_P1;HPM_P2
2021/12/21 00:00:16;;;;;;;5.92;2.27;;;;;;;-0.99;65.18;99755.23;1723045;81;21067;-58
2021/12/21 00:02:47;;;;;;;6.17;2.47;;;;;;;-0.99;65.14;99756.98;1721969;81;21153;-58
2021/12/21 00:05:19;;;;;;;5.47;2.92;;;;;;;-0.95;64.94;99751.59;1715881;81;21117;-59
2021/12/21 00:07:48;;;;;;;5.75;2.20;;;;;;;-0.93;64.54;99759.28;1716314;81;20988;-59
2021/12/21 00:10:19;;;;;;;5.17;2.10;;;;;;;-0.93;64.44;99761.87;1703522;82;21051;-58
2021/12/21 00:13:03;;;;;;;5.30;2.12;;;;;;;-0.94;64.23;99766.20;1707319;81;21094;-58
2021/12/21 00:15:22;;;;;;;4.75;1.80;;;;;;;-0.97;64.17;99770.20;1706123;82;21243;-59
2021/12/21 00:17:54;;;;;;;5.37;2.50;;;;;;;-1.09;64.96;99771.16;1702708;82;21547;-59
2021/12/21 00:23:18;;;;;;;3.98;1.50;;;;;;;-1.18;63.80;99778.41;1681582;83;21064;-58
2021/12/21 00:25:22;;;;;;;3.60;0.95;;;;;;;-1.35;61.36;99783.40;1679216;81;21126;-58
2021/12/21 00:27:51;;;;;;;6.47;2.22;;;;;;;-1.61;60.97;99772.39;1702230;81;21839;-58
2021/12/21 00:30:18;;;;;;;3.35;1.12;;;;;;;-1.74;61.54;99791.83;1701607;82;21055;-58
2021/12/21 00:32:45;;;;;;;4.10;1.20;;;;;;;-1.81;62.14;99783.48;1687533;82;21629;-58
2021/12/21 00:35:12;;;;;;;4.25;1.05;;;;;;;-1.88;61.40;99775.60;1698886;82;21098;-58
2021/12/21 00:37:41;;;;;;;4.17;1.30;;;;;;;-1.91;61.37;99788.61;1709096;82;21093;-58
2021/12/21 00:40:11;;;;;;;3.00;1.10;;;;;;;-1.97;61.23;99796.56;1686379;82;21134;-58
2021/12/21 00:42:38;;;;;;;3.37;1.02;;;;;;;-2.03;61.15;99800.66;1682108;83;21082;-58
2021/12/21 00:45:06;;;;;;;3.90;1.25;;;;;;;-2.07;61.82;99812.39;1711603;82;21057;-58
2021/12/21 00:47:39;;;;;;;3.35;1.10;;;;;;;-2.10;62.06;99820.66;1702901;82;21075;-58
2021/12/21 00:50:04;;;;;;;5.83;1.30;;;;;;;-2.15;62.38;99807.11;1711762;81;21330;-58
2021/12/21 00:52:30;;;;;;;3.60;1.05;;;;;;;-2.15;63.12;99820.00;1683289;82;22392;-58
2021/12/21 00:54:57;;;;;;;3.33;1.12;;;;;;;-2.16;63.16;99833.34;1706676;82;21117;-58
2021/12/21 00:57:24;;;;;;;4.85;1.30;;;;;;;-2.17;63.36;99829.10;1705046;82;21102;-58
2021/12/21 00:59:50;;;;;;;3.70;1.10;;;;;;;-2.18;63.41;99829.16;1708179;82;21556;-58
2021/12/21 01:02:17;;;;;;;4.20;1.32;;;;;;;-2.23;63.49;99822.87;1700764;82;21117;-57
2021/12/21 01:04:47;;;;;;;2.98;1.05;;;;;;;-2.28;63.92;99833.80;1756889;79;23296;-57
2021/12/21 01:12:46;;;;;;;4.53;1.07;;;;;;;-2.40;63.83;99832.92;1666536;83;21104;-57
2021/12/21 01:17:56;;;;;;;3.33;1.17;;;;;;;-2.39;64.70;99839.77;1758714;79;21200;-57
2021/12/21 01:20:33;;;;;;;4.15;1.60;;;;;;;-2.44;64.82;99833.05;1755247;79;21102;-58
2021/12/21 01:25:43;;;;;;;3.22;1.15;;;;;;;-2.51;64.91;99848.31;1762074;79;21133;-58
2021/12/21 01:30:47;;;;;;;4.85;1.42;;;;;;;-2.54;64.77;99849.73;1655978;82;21971;-57
2021/12/21 01:35:37;;;;;;;4.35;1.17;;;;;;;-2.44;64.93;99861.82;1747680;79;21086;-57
2021/12/21 01:38:22;;;;;;;3.92;1.15;;;;;;;-2.44;65.20;99863.11;1756126;79;21058;-58
2021/12/21 01:51:08;;;;;;;3.85;1.10;;;;;;;-2.39;63.23;99871.98;1759999;79;21122;-58
2021/12/21 01:53:36;;;;;;;2.75;1.00;;;;;;;-2.41;63.13;99875.06;1760302;79;20972;-58
2021/12/21 01:56:04;;;;;;;2.80;0.95;;;;;;;-2.47;62.69;99881.25;1748165;80;23269;-59
2021/12/21 01:58:33;;;;;;;2.98;1.10;;;;;;;-2.47;62.84;99887.27;1760282;79;21548;-58
2021/12/21 02:01:01;;;;;;;3.65;1.25;;;;;;;-2.50;62.64;99895.09;1761737;79;21039;-59
2021/12/21 02:03:27;;;;;;;3.17;0.82;;;;;;;-2.59;61.40;99894.55;1745534;79;21595;-59
2021/12/21 02:05:54;;;;;;;3.77;1.17;;;;;;;-2.62;61.82;99899.38;1739019;80;21095;-58
2021/12/21 02:08:21;;;;;;;3.30;1.10;;;;;;;-2.63;61.87;99895.11;1760997;79;21197;-59
2021/12/21 02:10:48;;;;;;;5.37;1.30;;;;;;;-2.67;61.38;99894.37;1765213;79;21039;-59
2021/12/21 02:13:14;;;;;;;3.37;1.00;;;;;;;-2.69;61.08;99905.18;1766573;79;21078;-58
2021/12/21 02:15:41;;;;;;;3.45;1.20;;;;;;;-2.67;60.87;99905.97;1763292;79;21078;-58
2021/12/21 02:20:57;;;;;;;3.47;1.00;;;;;;;-2.69;60.61;99909.05;1770754;79;21465;-57
2021/12/21 02:23:35;;;;;;;3.20;1.17;;;;;;;-2.68;60.23;99920.18;1763484;79;21046;-59
2021/12/21 02:30:54;;;;;;;5.65;1.70;;;;;;;-2.64;59.38;99926.90;1767014;79;21015;-59
2021/12/21 02:33:16;;;;;;;4.20;1.55;;;;;;;-2.64;59.27;99927.77;1772487;79;21817;-59
2021/12/21 02:35:42;;;;;;;5.17;1.70;;;;;;;-2.64;58.57;99931.63;1763338;79;21011;-59
2021/12/21 02:38:10;;;;;;;4.00;1.15;;;;;;;-2.63;58.72;99937.16;1738751;80;21588;-59
2021/12/21 02:40:36;;;;;;;4.90;1.60;;;;;;;-2.64;58.61;99934.63;1739992;80;21074;-59
2021/12/21 02:43:04;;;;;;;4.87;1.30;;;;;;;-2.65;58.32;99944.55;1768342;79;21022;-59
2021/12/21 02:45:31;;;;;;;3.42;0.95;;;;;;;-2.65;57.97;99952.28;1759149;79;21249;-60
2021/12/21 02:47:57;;;;;;;3.47;1.20;;;;;;;-2.66;58.45;99946.72;1700887;82;21541;-59
2021/12/21 02:50:23;;;;;;;4.42;1.45;;;;;;;-2.66;58.28;99951.88;1774982;79;21019;-58
2021/12/21 02:52:51;;;;;;;3.62;1.25;;;;;;;-2.67;58.23;99951.49;1774593;79;21078;-59
2021/12/21 02:55:17;;;;;;;3.47;1.20;;;;;;;-2.66;58.18;99956.56;1732092;80;21030;-59
2021/12/21 02:57:45;;;;;;;3.70;0.95;;;;;;;-2.67;57.56;99952.78;1765097;79;21167;-59
2021/12/21 03:00:13;;;;;;;4.45;0.95;;;;;;;-2.68;57.80;99949.80;1767747;79;21054;-59
2021/12/21 03:02:40;;;;;;;3.00;0.90;;;;;;;-2.71;57.61;99956.33;1769448;79;21090;-59
2021/12/21 03:05:07;;;;;;;2.27;0.68;;;;;;;-2.77;57.30;99961.67;1765598;79;21501;-59
2021/12/21 03:10:23;;;;;;;3.83;1.00;;;;;;;-2.86;57.34;99962.37;1759442;79;23333;-57
2021/12/21 03:15:20;;;;;;;3.87;1.30;;;;;;;-2.91;57.36;99969.83;1749453;79;21625;-57
2021/12/21 03:17:50;;;;;;;3.80;1.27;;;;;;;-2.92;57.51;99978.47;1762058;79;21075;-57
2021/12/21 03:20:17;;;;;;;4.20;1.27;;;;;;;-2.94;57.84;99980.22;1736142;80;21022;-57
2021/12/21 03:22:44;;;;;;;4.15;1.52;;;;;;;-2.97;57.29;99974.73;1741923;79;21034;-58
2021/12/21 03:25:12;;;;;;;3.47;1.00;;;;;;;-2.95;57.73;99981.96;1757257;79;21073;-58
2021/12/21 03:27:38;;;;;;;4.47;1.37;;;;;;;-2.93;57.73;99987.06;1754695;80;21049;-57
2021/12/21 03:30:07;;;;;;;4.10;1.10;;;;;;;-2.95;57.94;99987.11;1760285;79;21347;-57
2021/12/21 03:32:36;;;;;;;4.87;1.47;;;;;;;-2.94;57.96;99981.51;1759717;80;21024;-57
2021/12/21 03:35:03;;;;;;;4.47;1.30;;;;;;;-2.94;57.99;99987.95;1757473;80;22189;-58
2021/12/21 03:37:30;;;;;;;4.75;1.57;;;;;;;-2.92;57.82;99992.17;1753046;79;21095;-58
2021/12/21 03:39:58;;;;;;;5.25;1.50;;;;;;;-2.96;57.68;99993.14;1740339;80;20992;-58
2021/12/21 03:42:24;;;;;;;3.47;1.05;;;;;;;-2.94;57.85;100004.26;1753165;80;21024;-58
2021/12/21 03:44:51;;;;;;;4.78;1.50;;;;;;;-2.92;57.82;99997.32;1767415;79;21043;-57
2021/12/21 03:47:18;;;;;;;4.55;1.35;;;;;;;-2.91;57.78;100002.84;1757060;80;21122;-58
2021/12/21 03:52:17;;;;;;;4.05;1.40;;;;;;;-2.82;57.97;100000.46;1760900;80;22228;-58
2021/12/21 03:54:49;;;;;;;3.17;1.00;;;;;;;-2.78;57.51;99996.89;1760451;79;21094;-57
2021/12/21 03:57:15;;;;;;;7.17;1.60;;;;;;;-2.80;57.24;99994.36;1760371;79;21039;-59
2021/12/21 03:59:42;;;;;;;5.80;1.57;;;;;;;-2.83;57.38;99994.45;1760772;79;21507;-58
2021/12/21 04:02:11;;;;;;;6.10;1.67;;;;;;;-2.85;57.22;99994.11;1771481;79;21063;-58
2021/12/21 04:04:39;;;;;;;4.30;1.32;;;;;;;-2.82;57.46;100003.03;1762278;79;21034;-57
2021/12/21 04:07:06;;;;;;;4.00;1.10;;;;;;;-2.81;57.39;99999.55;1753380;79;21052;-58
2021/12/21 04:09:34;;;;;;;4.22;1.45;;;;;;;-2.81;57.31;100015.00;1765057;79;21031;-58
2021/12/21 04:12:01;;;;;;;3.55;1.17;;;;;;;-2.85;57.19;100004.41;1712635;82;21175;-58
2021/12/21 04:14:30;;;;;;;4.22;1.35;;;;;;;-2.85;57.19;100002.67;1716583;81;21090;-59
2021/12/21 04:16:57;;;;;;;5.45;1.42;;;;;;;-2.85;57.82;100006.53;1711709;81;21011;-58
2021/12/21 04:19:24;;;;;;;4.45;1.30;;;;;;;-2.91;57.79;100015.72;1682692;81;21081;-58
2021/12/21 04:21:51;;;;;;;3.55;1.22;;;;;;;-2.96;57.22;100006.02;1718666;81;21101;-58
2021/12/21 04:24:17;;;;;;;4.25;1.32;;;;;;;-2.98;57.34;100011.66;1690277;83;21464;-58
2021/12/21 04:26:43;;;;;;;3.55;1.10;;;;;;;-2.98;57.87;100015.52;1716778;81;21034;-58
2021/12/21 04:29:10;;;;;;;4.62;1.27;;;;;;;-2.97;57.85;100014.64;1711735;81;20999;-59
2021/12/21 04:31:36;;;;;;;4.75;1.50;;;;;;;-2.93;57.95;100021.38;1716541;81;21070;-60
2021/12/21 04:34:02;;;;;;;4.10;1.47;;;;;;;-2.89;57.78;100029.84;1715766;81;21669;-60
2021/12/21 04:36:30;;;;;;;5.55;1.57;;;;;;;-2.86;57.76;100029.75;1717304;81;21152;-58
2021/12/21 04:38:58;;;;;;;4.37;1.42;;;;;;;-2.83;57.91;100032.23;1716451;81;21081;-56
2021/12/21 04:41:27;;;;;;;4.87;1.27;;;;;;;-2.81;57.99;100031.31;1691861;82;21122;-59
2021/12/21 04:43:55;;;;;;;6.37;1.82;;;;;;;-2.79;57.96;100032.56;1714289;81;21086;-59
2021/12/21 04:46:23;;;;;;;3.42;0.93;;;;;;;-2.78;57.62;100035.97;1720581;81;21063;-58
2021/12/21 04:48:49;;;;;;;4.15;1.30;;;;;;;-2.84;57.73;100036.98;1695593;82;21046;-59
2021/12/21 04:51:15;;;;;;;4.37;1.40;;;;;;;-2.94;57.82;100036.44;1714464;81;21074;-58
2021/12/21 04:53:42;;;;;;;4.10;1.15;;;;;;;-2.92;58.09;100043.66;1690908;82;21109;-59
2021/12/21 04:56:09;;;;;;;6.25;1.50;;;;;;;-2.88;58.25;100049.11;1737040;80;21623;-59
2021/12/21 04:58:37;;;;;;;5.80;2.17;;;;;;;-2.81;58.30;100051.92;1720528;82;21065;-59
2021/12/21 05:01:04;;;;;;;5.70;1.60;;;;;;;-2.82;57.65;100046.81;1687858;82;21084;-59
2021/12/21 05:03:30;;;;;;;4.65;1.62;;;;;;;-2.81;57.69;100050.63;1731097;82;21050;-58
2021/12/21 05:05:57;;;;;;;5.50;1.77;;;;;;;-2.81;57.83;100054.49;1733617;80;20979;-58
2021/12/21 05:08:26;;;;;;;4.50;1.70;;;;;;;-2.83;57.97;100052.84;1737162;82;21040;-58
2021/12/21 05:10:57;;;;;;;3.58;1.07;;;;;;;-2.84;58.28;100057.16;1701378;82;21094;-59
2021/12/21 05:13:25;;;;;;;3.67;1.00;;;;;;;-2.84;59.08;100058.45;1727470;82;21090;-59
2021/12/21 05:15:51;;;;;;;2.55;0.70;;;;;;;-2.96;59.40;100063.94;1718944;82;21031;-57
2021/12/21 05:18:18;;;;;;;2.65;1.00;;;;;;;-3.09;59.21;100058.74;1694581;81;21076;-57
2021/12/21 05:20:45;;;;;;;3.33;0.95;;;;;;;-3.21;59.47;100063.80;1709135;82;21103;-58
2021/12/21 05:23:12;;;;;;;6.50;0.98;;;;;;;-3.32;60.66;100069.72;1704997;82;21112;-57
2021/12/21 05:25:39;;;;;;;7.33;1.02;;;;;;;-3.40;60.48;100064.77;1685614;82;21057;-57
2021/12/21 05:28:07;;;;;;;3.65;1.00;;;;;;;-3.48;61.34;100070.56;1687158;83;21816;-57
2021/12/21 05:30:34;;;;;;;9.28;3.02;;;;;;;-3.49;61.56;100079.19;1738051;81;21072;-58
2021/12/21 05:33:00;;;;;;;6.58;2.15;;;;;;;-3.52;61.91;100077.52;1732169;80;21122;-59
2021/12/21 05:35:27;;;;;;;3.92;0.98;;;;;;;-3.53;62.60;100087.85;1711964;81;21033;-59
2021/12/21 05:37:58;;;;;;;5.78;1.77;;;;;;;-3.49;62.83;100088.19;1689233;81;21259;-58
2021/12/21 05:40:29;;;;;;;5.17;1.77;;;;;;;-3.46;62.49;100088.94;1682282;82;21157;-58
2021/12/21 05:42:51;;;;;;;10.75;5.03;;;;;;;-3.42;62.67;100096.13;1717104;82;21066;-57
2021/12/21 05:45:17;;;;;;;9.33;3.98;;;;;;;-3.40;62.77;100100.33;1715781;82;21137;-60
2021/12/21 05:47:45;;;;;;;10.45;4.33;;;;;;;-3.40;62.33;100095.19;1686987;83;21141;-59
2021/12/21 05:50:16;;;;;;;12.90;6.92;;;;;;;-3.38;64.02;100110.16;1711312;82;21061;-57
2021/12/21 05:52:47;;;;;;;9.23;4.00;;;;;;;-3.38;64.01;100117.88;1713841;81;21983;-58
2021/12/21 05:55:14;;;;;;;13.68;5.03;;;;;;;-3.37;62.95;100119.55;1714094;81;21515;-58
2021/12/21 05:57:40;;;;;;;8.43;4.25;;;;;;;-3.38;62.36;100120.88;1712531;82;21070;-58
2021/12/21 06:00:14;;;;;;;6.15;2.72;;;;;;;-3.40;62.30;100124.78;1706882;82;21639;-58
2021/12/21 06:02:41;;;;;;;5.33;1.62;;;;;;;-3.45;61.39;100131.77;1714512;82;21168;-57
2021/12/21 06:05:09;;;;;;;8.83;3.33;;;;;;;-3.46;61.59;100136.53;1706022;82;20999;-58
2021/12/21 06:07:37;;;;;;;7.67;3.62;;;;;;;-3.53;61.92;100138.01;1709543;82;21086;-58
2021/12/21 06:10:13;;;;;;;5.60;2.12;;;;;;;-3.62;62.14;100133.50;1701598;81;21082;-58
2021/12/21 06:15:22;;;;;;;4.72;1.55;;;;;;;-3.71;62.37;100144.48;1700729;82;21016;-59
2021/12/21 06:23:36;;;;;;;5.60;2.00;;;;;;;-3.97;63.43;100139.52;1701880;82;21066;-60
2021/12/21 06:26:08;;;;;;;5.87;2.30;;;;;;;-4.06;63.13;100152.16;1705729;81;21071;-61
2021/12/21 06:28:32;;;;;;;5.60;2.10;;;;;;;-4.07;62.89;100162.02;1739174;80;21189;-60
2021/12/21 06:30:59;;;;;;;7.42;2.35;;;;;;;-4.11;63.00;100169.41;1728208;80;21087;-62
2021/12/21 06:33:25;;;;;;;4.42;1.98;;;;;;;-4.11;62.61;100174.10;1732216;80;21087;-61
2021/12/21 06:35:52;;;;;;;4.42;1.82;;;;;;;-4.12;62.51;100174.13;1727760;80;21487;-62
2021/12/21 06:38:19;;;;;;;4.87;2.05;;;;;;;-4.12;62.49;100180.55;1732819;80;21046;-61
2021/12/21 06:40:47;;;;;;;4.67;1.30;;;;;;;-4.12;62.37;100183.13;1727685;80;21172;-61
2021/12/21 06:43:15;;;;;;;7.45;1.87;;;;;;;-4.12;60.94;100184.41;1734180;80;21139;-61
2021/12/21 06:53:41;;;;;;;4.95;1.30;;;;;;;-4.28;59.68;100199.79;1734492;80;21169;-61
2021/12/21 06:56:08;;;;;;;4.53;1.30;;;;;;;-4.38;59.33;100210.25;1732407;80;21051;-61
2021/12/21 06:58:35;;;;;;;4.85;1.15;;;;;;;-4.38;59.59;100203.83;1712254;80;20972;-61
2021/12/21 07:01:03;;;;;;;4.70;1.40;;;;;;;-4.45;58.56;100211.27;1705228;82;21045;-59
2021/12/21 07:03:30;;;;;;;5.05;1.50;;;;;;;-4.53;57.50;100202.87;1729749;80;21134;-60
2021/12/21 07:05:58;;;;;;;3.95;1.50;;;;;;;-4.61;56.14;100204.75;1720843;81;21051;-60
2021/12/21 07:08:28;;;;;;;4.33;1.10;;;;;;;-4.60;56.38;100211.59;1707581;82;21082;-59
2021/12/21 07:11:08;;;;;;;3.77;1.10;;;;;;;-4.56;56.04;100214.48;1734868;80;21607;-61
2021/12/21 07:18:55;;;;;;;3.95;0.90;;;;;;;-4.48;53.84;100210.04;1733029;80;21151;-60
2021/12/21 07:21:21;;;;;;;8.20;1.60;;;;;;;-4.62;53.18;100227.02;1712617;81;21042;-60
2021/12/21 07:23:50;;;;;;;3.77;1.20;;;;;;;-4.78;52.35;100226.47;1714922;82;21118;-62
2021/12/21 07:26:17;;;;;;;5.95;1.30;;;;;;;-4.86;53.59;100233.05;1730095;80;21066;-62
2021/12/21 07:28:44;;;;;;;4.45;1.00;;;;;;;-4.83;53.83;100236.42;1736788;80;21363;-60
2021/12/21 07:31:10;;;;;;;4.50;1.27;;;;;;;-4.85;53.26;100235.17;1730037;81;21162;-61
2021/12/21 07:33:37;;;;;;;2.75;1.00;;;;;;;-4.85;53.89;100239.85;1736287;81;21058;-62
2021/12/21 07:36:04;;;;;;;3.47;1.10;;;;;;;-4.82;51.92;100244.09;1711795;81;21031;-62
2021/12/21 07:38:32;;;;;;;3.27;1.30;;;;;;;-4.81;51.63;100245.77;1734346;81;21346;-62
2021/12/21 07:41:00;;;;;;;3.30;0.70;;;;;;;-4.85;51.65;100248.00;1676889;83;21147;-62
2021/12/21 07:43:27;;;;;;;3.17;1.02;;;;;;;-4.95;51.96;100250.33;1731982;80;21394;-60
2021/12/21 07:45:54;;;;;;;6.70;1.10;;;;;;;-5.05;52.62;100263.31;1731853;80;21086;-61
2021/12/21 07:48:20;;;;;;;3.87;0.90;;;;;;;-5.17;49.93;100266.11;1735630;81;21099;-61
2021/12/21 07:50:47;;;;;;;3.20;0.80;;;;;;;-5.18;50.65;100261.83;1731731;80;21324;-61
2021/12/21 07:53:15;;;;;;;2.95;0.82;;;;;;;-5.18;52.72;100269.53;1715116;82;21578;-62
2021/12/21 07:55:42;;;;;;;4.53;0.98;;;;;;;-5.17;54.04;100285.34;1735524;80;21161;-62
2021/12/21 07:58:10;;;;;;;4.12;1.25;;;;;;;-5.18;54.19;100288.77;1715972;82;21082;-60
2021/12/21 08:00:37;;;;;;;3.35;0.98;;;;;;;-5.15;53.61;100281.47;1734429;80;21054;-61
2021/12/21 08:03:04;;;;;;;4.17;1.10;;;;;;;-5.22;50.83;100288.42;1734871;80;21067;-61
2021/12/21 08:05:33;;;;;;;3.75;0.90;;;;;;;-5.37;48.52;100286.12;1739204;80;21030;-62
2021/12/21 08:08:12;;;;;;;6.25;1.02;;;;;;;-5.39;49.73;100273.77;1728737;80;21167;-62
2021/12/21 08:10:46;;;;;;;3.50;0.90;;;;;;;-5.49;50.55;100299.98;1734029;80;21058;-62
2021/12/21 08:13:11;;;;;;;3.22;0.98;;;;;;;-5.54;51.90;100303.89;1715747;80;21019;-62
2021/12/21 08:15:38;;;;;;;4.75;1.30;;;;;;;-5.48;50.84;100308.94;1734164;80;21466;-62
2021/12/21 08:18:04;;;;;;;4.33;1.40;;;;;;;-5.43;50.03;100303.30;1728528;80;21008;-63
2021/12/21 08:20:33;;;;;;;4.10;1.17;;;;;;;-5.39;49.35;100307.10;1732685;80;21217;-62
2021/12/21 08:22:59;;;;;;;5.85;1.67;;;;;;;-5.42;49.68;100307.98;1678059;83;21071;-62
2021/12/21 08:25:27;;;;;;;6.78;1.35;;;;;;;-5.44;49.81;100298.19;1733688;80;21599;-61
2021/12/21 08:27:55;;;;;;;8.75;2.10;;;;;;;-5.44;50.24;100309.28;1713847;80;21106;-62
2021/12/21 08:30:23;;;;;;;4.20;1.60;;;;;;;-5.46;50.52;100311.03;1696655;82;21131;-63
2021/12/21 08:32:49;;;;;;;5.15;1.60;;;;;;;-5.41;50.68;100320.78;1677673;82;21215;-61
2021/12/21 08:35:16;;;;;;;3.85;1.37;;;;;;;-5.33;50.28;100318.11;1698690;82;21074;-61
2021/12/21 08:37:49;;;;;;;6.83;2.12;;;;;;;-5.38;48.18;100325.00;1697007;82;21118;-62
2021/12/21 08:40:12;;;;;;;4.20;1.20;;;;;;;-5.36;49.10;100330.98;1715125;81;21161;-62
2021/12/21 08:42:40;;;;;;;5.58;2.12;;;;;;;-5.36;48.21;100333.95;1711396;81;21606;-61
2021/12/21 08:45:07;;;;;;;5.20;1.60;;;;;;;-5.42;48.55;100339.59;1713768;81;21114;-62
2021/12/21 08:47:35;;;;;;;5.65;1.57;;;;;;;-5.52;46.25;100335.92;1699330;82;21062;-61
2021/12/21 08:50:04;;;;;;;4.60;1.67;;;;;;;-5.54;47.08;100348.76;1658264;84;21170;-61
2021/12/21 08:52:32;;;;;;;4.05;1.45;;;;;;;-5.58;47.95;100341.13;1696679;82;21012;-61
2021/12/21 08:54:58;;;;;;;2.98;0.95;;;;;;;-5.64;48.09;100327.97;1700397;82;21384;-63
2021/12/21 08:57:25;;;;;;;4.80;1.35;;;;;;;-5.75;47.14;100342.64;1691503;83;21051;-61
2021/12/21 08:59:53;;;;;;;5.53;1.35;;;;;;;-5.85;47.30;100336.79;1714481;81;21090;-61
2021/12/21 09:02:19;;;;;;;2.92;0.85;;;;;;;-6.00;47.82;100345.55;1713725;81;21755;-60
2021/12/21 09:04:45;;;;;;;4.28;1.35;;;;;;;-6.12;49.34;100345.71;1667356;82;21168;-62
2021/12/21 09:07:12;;;;;;;5.12;1.67;;;;;;;-6.21;49.64;100350.08;1716017;81;21610;-61
2021/12/21 09:09:38;;;;;;;8.80;2.47;;;;;;;-6.18;49.73;100350.05;1716223;81;21152;-61
2021/12/21 09:12:06;;;;;;;10.40;2.02;;;;;;;-6.25;49.55;100354.84;1709396;81;21077;-62
2021/12/21 09:14:33;;;;;;;5.67;1.87;;;;;;;-6.30;49.66;100346.77;1717707;81;21085;-61
2021/12/21 09:17:01;;;;;;;5.40;1.87;;;;;;;-6.29;50.12;100363.40;1695141;82;21766;-60
2021/12/21 09:19:27;;;;;;;6.03;1.98;;;;;;;-6.22;50.78;100366.33;1697024;82;20988;-61
2021/12/21 09:21:54;;;;;;;11.83;2.17;;;;;;;-6.11;50.93;100366.63;1665306;83;21138;-63
2021/12/21 09:24:20;;;;;;;4.50;1.80;;;;;;;-6.03;50.15;100354.14;1717022;81;21610;-62
2021/12/21 09:26:48;;;;;;;5.50;1.65;;;;;;;-6.02;48.61;100362.66;1714813;81;21074;-61
2021/12/21 09:29:14;;;;;;;5.60;1.77;;;;;;;-6.12;48.20;100349.11;1752032;80;21083;-62
2021/12/21 09:31:41;;;;;;;4.42;1.65;;;;;;;-6.12;47.79;100372.17;1752673;80;21059;-62
2021/12/21 09:34:08;;;;;;;5.70;1.60;;;;;;;-6.18;47.48;100378.22;1749177;80;21116;-62
2021/12/21 09:36:34;;;;;;;5.87;1.32;;;;;;;-6.33;45.97;100377.56;1755152;80;21089;-62
2021/12/21 09:39:01;;;;;;;6.50;2.10;;;;;;;-6.32;47.63;100369.86;1753612;80;21061;-61
2021/12/21 09:41:27;;;;;;;3.33;1.00;;;;;;;-6.36;47.50;100372.86;1753536;81;21092;-62
2021/12/21 09:43:54;;;;;;;5.17;1.60;;;;;;;-6.25;47.36;100371.92;1737541;80;21086;-62
2021/12/21 09:46:20;;;;;;;5.20;1.50;;;;;;;-6.25;46.13;100370.20;1735283;80;21021;-62
2021/12/21 09:48:46;;;;;;;4.67;1.50;;;;;;;-6.27;46.13;100373.63;1738991;80;21063;-62
2021/12/21 09:51:13;;;;;;;5.33;1.82;;;;;;;-6.30;45.99;100377.09;1712115;82;21063;-62
2021/12/21 09:53:39;;;;;;;5.00;1.70;;;;;;;-6.27;46.89;100376.19;1737088;80;21087;-62
2021/12/21 09:56:06;;;;;;;4.62;1.60;;;;;;;-6.25;46.31;100378.33;1738293;81;21106;-63
2021/12/21 09:58:35;;;;;;;4.62;1.55;;;;;;;-6.26;45.53;100372.33;1729219;81;21082;-64
2021/12/21 10:01:02;;;;;;;5.10;1.70;;;;;;;-6.18;46.39;100375.66;1754018;80;22043;-61
2021/12/21 10:03:29;;;;;;;6.00;1.52;;;;;;;-6.17;45.50;100372.66;1752241;80;21048;-63
2021/12/21 10:06:07;;;;;;;5.00;1.42;;;;;;;-6.28;46.87;100365.11;1752967;80;21041;-62
2021/12/21 10:08:33;;;;;;;5.80;1.40;;;;;;;-6.37;46.61;100380.56;1754045;80;21114;-62
2021/12/21 10:11:00;;;;;;;3.65;1.20;;;;;;;-6.56;44.33;100365.83;1751734;80;21167;-63
2021/12/21 10:13:27;;;;;;;4.05;1.70;;;;;;;-6.57;46.03;100387.19;1753426;80;21037;-62
2021/12/21 10:16:00;;;;;;;5.33;1.40;;;;;;;-6.74;45.87;100383.07;1718236;80;21103;-62
2021/12/21 10:18:31;;;;;;;7.40;1.82;;;;;;;-6.79;46.34;100378.83;1752394;80;21060;-62
2021/12/21 10:21:00;;;;;;;4.67;1.95;;;;;;;-6.70;46.86;100391.56;1749018;81;21114;-62
2021/12/21 10:23:30;;;;;;;5.37;1.90;;;;;;;-6.65;45.94;100393.64;1749759;80;21119;-62
2021/12/21 10:26:02;;;;;;;6.00;2.40;;;;;;;-6.59;46.06;100389.77;1747147;80;21085;-60
2021/12/21 10:28:39;;;;;;;6.10;1.87;;;;;;;-6.56;46.09;100406.34;1710879;81;21090;-62
2021/12/21 10:31:30;;;;;;;7.08;2.37;;;;;;;-6.49;46.02;100397.33;1741320;80;21818;-61
2021/12/21 10:33:58;;;;;;;4.25;1.92;;;;;;;-6.48;45.41;100394.77;1742855;80;21063;-61
2021/12/21 10:36:26;;;;;;;6.03;2.30;;;;;;;-6.36;46.17;100400.19;1714532;80;21544;-61
2021/12/21 10:38:56;;;;;;;5.90;2.37;;;;;;;-6.25;46.13;100399.66;1718515;80;21124;-61
2021/12/21 10:41:39;;;;;;;6.22;2.50;;;;;;;-6.09;46.07;100402.04;1745688;80;21681;-61
2021/12/21 10:44:11;;;;;;;6.53;2.20;;;;;;;-6.02;44.81;100393.41;1743751;80;21090;-61
2021/12/21 10:46:42;;;;;;;5.67;2.10;;;;;;;-6.00;44.32;100394.23;1751133;80;21110;-61
2021/12/21 10:49:16;;;;;;;6.20;2.33;;;;;;;-6.02;44.04;100404.94;1745962;80;21119;-61
2021/12/21 10:52:07;;;;;;;3.55;1.40;;;;;;;-6.04;44.79;100407.95;1745943;80;21606;-61
2021/12/21 10:54:39;;;;;;;5.20;1.50;;;;;;;-6.02;44.22;100412.63;1718809;80;21117;-62
2021/12/21 10:57:26;;;;;;;4.35;1.25;;;;;;;-6.04;42.46;100415.20;1744405;80;21049;-63
2021/12/21 10:59:54;;;;;;;4.70;1.50;;;;;;;-6.08;42.14;100412.27;1713546;80;21018;-62
2021/12/21 11:02:28;;;;;;;4.92;1.37;;;;;;;-6.17;42.74;100402.98;1745574;80;21909;-63
2021/12/21 11:05:01;;;;;;;5.47;2.15;;;;;;;-6.20;43.18;100419.66;1743370;80;21589;-60
2021/12/21 11:07:45;;;;;;;6.58;1.72;;;;;;;-6.16;42.90;100418.75;1744110;80;21078;-59
2021/12/21 11:10:15;;;;;;;4.60;1.62;;;;;;;-6.11;42.80;100412.74;1725423;80;21643;-61
2021/12/21 11:12:48;;;;;;;4.58;1.60;;;;;;;-6.14;42.85;100403.36;1720350;80;21519;-61
2021/12/21 11:15:19;;;;;;;5.47;1.80;;;;;;;-6.12;42.85;100410.59;1716237;80;21246;-61
2021/12/21 11:17:46;;;;;;;4.75;1.62;;;;;;;-6.13;42.74;100410.64;1747211;80;21120;-61
2021/12/21 11:20:14;;;;;;;4.90;1.50;;;;;;;-6.09;43.34;100414.41;1744903;80;21077;-60
2021/12/21 11:22:44;;;;;;;3.55;1.07;;;;;;;-6.10;42.98;100412.73;1746405;80;21073;-61
2021/12/21 11:26:38;;;;;;;5.17;1.45;;;;;;;-6.08;42.88;100419.95;1794950;78;22400;-62
2021/12/21 11:29:08;;;;;;;4.72;1.30;;;;;;;-6.13;42.43;100423.00;1765431;80;20997;-61
2021/12/21 11:31:41;;;;;;;4.65;1.37;;;;;;;-6.16;42.27;100421.31;1764090;80;21518;-61
2021/12/21 11:34:13;;;;;;;4.62;1.50;;;;;;;-6.12;43.27;100439.21;1767128;80;20998;-61
2021/12/21 11:39:24;;;;;;;4.95;1.55;;;;;;;-6.13;42.44;100437.09;1767692;80;21152;-61
2021/12/21 11:41:50;;;;;;;4.30;1.40;;;;;;;-6.08;43.42;100438.33;1769413;80;21599;-61
2021/12/21 11:44:30;;;;;;;5.45;1.75;;;;;;;-6.03;42.65;100448.94;1741436;80;21110;-60
2021/12/21 11:47:01;;;;;;;4.17;1.50;;;;;;;-6.02;42.49;100437.83;1762484;79;21054;-61
2021/12/21 11:49:50;;;;;;;6.87;1.25;;;;;;;-6.02;43.07;100449.77;1742856;80;21094;-61
2021/12/21 11:52:20;;;;;;;7.92;1.95;;;;;;;-6.00;42.76;100450.19;1760093;80;21086;-61
2021/12/21 11:54:56;;;;;;;4.17;0.90;;;;;;;-5.92;42.69;100446.20;1761258;80;21140;-61
2021/12/21 11:57:41;;;;;;;4.58;1.27;;;;;;;-5.87;41.53;100449.56;1767175;79;21162;-61
2021/12/21 12:00:17;;;;;;;5.22;1.00;;;;;;;-5.84;42.38;100460.23;1766295;80;21034;-61
2021/12/21 12:02:44;;;;;;;3.33;0.80;;;;;;;-5.91;42.13;100468.42;1763316;79;21170;-62
2021/12/21 12:05:19;;;;;;;3.65;1.00;;;;;;;-5.88;42.48;100470.95;1767919;79;21091;-62
2021/12/21 12:07:46;;;;;;;5.97;1.30;;;;;;;-5.92;41.15;100464.14;1728383;81;21062;-62
2021/12/21 12:10:14;;;;;;;4.17;1.37;;;;;;;-5.98;42.21;100480.48;1709084;81;21816;-61
2021/12/21 12:12:42;;;;;;;4.55;1.20;;;;;;;-6.06;41.63;100487.39;1708276;82;21287;-61
2021/12/21 12:15:11;;;;;;;5.12;1.37;;;;;;;-6.15;42.34;100488.78;1686319;82;21054;-61
2021/12/21 12:17:49;;;;;;;6.67;1.92;;;;;;;-6.18;42.76;100487.08;1686034;82;21622;-62
2021/12/21 12:20:16;;;;;;;3.52;1.00;;;;;;;-6.22;43.35;100502.48;1703033;82;21027;-62
2021/12/21 12:22:46;;;;;;;4.00;1.30;;;;;;;-6.27;43.84;100505.11;1714088;82;21108;-62
2021/12/21 12:25:21;;;;;;;4.53;1.67;;;;;;;-6.29;43.52;100508.09;1675958;83;21061;-61
2021/12/21 12:27:50;;;;;;;6.22;1.40;;;;;;;-6.30;43.70;100505.54;1684131;83;21582;-62
2021/12/21 12:30:23;;;;;;;4.92;1.70;;;;;;;-6.32;43.89;100504.71;1660295;83;21131;-63
2021/12/21 12:33:02;;;;;;;4.08;1.50;;;;;;;-6.36;43.85;100507.30;1664345;84;21148;-62
2021/12/21 12:35:33;;;;;;;3.42;1.12;;;;;;;-6.38;43.50;100517.15;1684146;83;21101;-60
2021/12/21 12:38:07;;;;;;;5.60;1.17;;;;;;;-6.45;42.70;100505.27;1688781;84;21053;-62
2021/12/21 12:40:54;;;;;;;4.60;1.75;;;;;;;-6.46;42.46;100518.92;1686429;83;21082;-61
2021/12/21 12:43:24;;;;;;;4.53;1.35;;;;;;;-6.47;42.35;100514.64;1675066;83;21122;-61